Dai11kosyumaru — JL6131 — position and weather

sailwx.info

Track history (hours):
 
Tides and Currents Weather Stations Pressure Air Temp Water Temp Dewpoint Dewpoint Depression Visibility Wind Speed Wind Dir Waves Ship Positions

Dai11kosyumaru

Last reported at 2017-Nov-24 00:54 UTC. Time now 2017-Nov-24 03:25 UTC.
Position N 35°33' E 140°05'.

Length 65 m; draft 4 m.

MMSI: 431500038.

Date/timePositionNaut miles runAvg speedWind from/ knotsBaromVisibWave heightAir tempDewpointWater temp
2017-Nov-24 00:54N 35°33' E 140°05'6 5.5
2017-Nov-23 23:49N 35°32' E 139°58'410.7
2017-Nov-23 23:29N 35°30' E 139°54'510.8
2017-Nov-23 23:00N 35°27' E 139°49'510.7
2017-Nov-23 22:30N 35°22' E 139°45'510.1
2017-Nov-23 22:00N 35°17' E 139°45'510.3
2017-Nov-23 21:30N 35°12' E 139°47'510.5
2017-Nov-23 21:00N 35°08' E 139°43'5 9.9
2017-Nov-23 20:30N 35°04' E 139°39'510.5
2017-Nov-23 20:00N 35°01' E 139°34'3 6.9
2017-Nov-23 19:30N 35°03' E 139°38'510.3
2017-Nov-23 19:00N 34°59' E 139°33'  
2017-Nov-18 10:28N 34°03' E 134°60'511.4
2017-Nov-18 10:00N 34°08' E 134°59'611.8
2017-Nov-18 09:30N 34°14' E 134°59'2010.8
2017-Nov-18 07:41N 34°30' E 135°13'211.6
2017-Nov-18 07:30N 34°31' E 135°15'611.3
2017-Nov-18 06:59N 34°35' E 135°20'4 8.2
2017-Nov-18 06:30N 34°35' E 135°25'1 1.6
2017-Nov-18 06:01N 34°34' E 135°26'0 0.0
2017-Nov-18 05:28N 34°34' E 135°26'0 0.0
2017-Nov-18 05:00N 34°34' E 135°26'0 0.0
2017-Nov-18 04:02N 34°34' E 135°26'0 0.0
2017-Nov-18 03:59N 34°34' E 135°26'0 0.0
2017-Nov-18 03:29N 34°34' E 135°26'0 0.0
2017-Nov-18 02:55N 34°34' E 135°26'0 0.0
2017-Nov-18 02:27N 34°34' E 135°26'2 4.3
2017-Nov-18 01:58N 34°36' E 135°24'4 9.5
2017-Nov-18 01:31N 34°35' E 135°19'510.6
2017-Nov-18 01:01N 34°31' E 135°14'2 3.4
2017-Nov-18 00:31N 34°32' E 135°16'510.7
2017-Nov-18 00:00N 34°28' E 135°12'1810.3
2017-Nov-17 22:16N 34°13' E 135°00'311.6
2017-Nov-17 22:00N 34°10' E 135°01'5 0.1
2017-Nov-16 06:38N 34°05' E 134°59'211.7
2017-Nov-16 06:26N 34°07' E 134°59'512.1
2017-Nov-16 06:00N 34°12' E 134°59'2211.4
2017-Nov-16 04:06N 34°30' E 135°13'111.2
2017-Nov-16 04:01N 34°31' E 135°14'711.2
2017-Nov-16 03:25N 34°35' E 135°20'4 9.3
2017-Nov-16 02:59N 34°36' E 135°25'1 2.7
2017-Nov-16 02:26N 34°34' E 135°26'0 0.0
2017-Nov-16 01:53N 34°34' E 135°26'0 0.0
2017-Nov-16 01:27N 34°34' E 135°26'0 0.0
2017-Nov-16 01:00N 34°34' E 135°26'0 0.0
2017-Nov-16 00:31N 34°34' E 135°26'0 0.0
2017-Nov-16 00:01N 34°34' E 135°26'0 0.0
2017-Nov-15 23:30N 34°34' E 135°26'0 0.1
2017-Nov-15 23:00N 34°34' E 135°26'3 5.9
2017-Nov-15 22:31N 34°36' E 135°23'0 0.3
2017-Nov-15 21:56N 34°36' E 135°23'0 0.0
2017-Nov-15 21:30N 34°36' E 135°23'0 0.0
2017-Nov-15 20:57N 34°36' E 135°23'0 0.0
2017-Nov-15 20:25N 34°36' E 135°23'0 0.0
2017-Nov-15 20:01N 34°36' E 135°23'0 0.0
2017-Nov-15 19:29N 34°36' E 135°23'0 0.0
2017-Nov-15 19:01N 34°36' E 135°23'0 0.0
2017-Nov-15 18:31N 34°36' E 135°23'0 0.0
2017-Nov-15 18:01N 34°36' E 135°23'0 0.0
2017-Nov-15 17:28N 34°36' E 135°23'0 0.0
2017-Nov-15 16:58N 34°36' E 135°23'0 0.0
2017-Nov-15 16:31N 34°36' E 135°23'1 1.8
2017-Nov-15 16:01N 34°35' E 135°22'510.4
2017-Nov-15 15:31N 34°32' E 135°17'510.4
2017-Nov-15 15:00N 34°28' E 135°13'510.1
2017-Nov-15 14:29N 34°24' E 135°08'14 8.7
2017-Nov-15 12:56N 34°13' E 134°60'410.1
2017-Nov-15 12:31N 34°09' E 135°01'231 8.1
2017-Nov-14 07:57N 35°04' E 139°33'510.5
2017-Nov-14 07:30N 35°06' E 139°38'510.4
2017-Nov-14 07:00N 35°10' E 139°43'610.7
2017-Nov-14 06:28N 35°15' E 139°46'511.3
2017-Nov-14 06:00N 35°19' E 139°43'510.5
2017-Nov-14 05:30N 35°25' E 139°43'611.0
2017-Nov-14 05:00N 35°28' E 139°49'1410.1
2017-Nov-14 03:37N 35°33' E 140°05'  
Track history (hours):
 
Tides and Currents Weather Stations Pressure Air Temp Water Temp Dewpoint Dewpoint Depression Visibility Wind Speed Wind Dir Waves Ship Positions

Dai11kosyumaru

Last reported at 2017-Nov-24 00:54 UTC. Time now 2017-Nov-24 03:25 UTC.
Position N 35°33' E 140°05'.

Length 65 m; draft 4 m.

MMSI: 431500038.

Date/timePositionNaut miles runAvg speedWind from/ knotsBaromVisibWave heightAir tempDewpointWater temp
2017-Nov-24 00:54N 35°33' E 140°05'6 5.5
2017-Nov-23 23:49N 35°32' E 139°58'410.7
2017-Nov-23 23:29N 35°30' E 139°54'510.8
2017-Nov-23 23:00N 35°27' E 139°49'510.7
2017-Nov-23 22:30N 35°22' E 139°45'510.1
2017-Nov-23 22:00N 35°17' E 139°45'510.3
2017-Nov-23 21:30N 35°12' E 139°47'510.5
2017-Nov-23 21:00N 35°08' E 139°43'5 9.9
2017-Nov-23 20:30N 35°04' E 139°39'510.5
2017-Nov-23 20:00N 35°01' E 139°34'3 6.9
2017-Nov-23 19:30N 35°03' E 139°38'510.3
2017-Nov-23 19:00N 34°59' E 139°33'  
2017-Nov-18 10:28N 34°03' E 134°60'511.4
2017-Nov-18 10:00N 34°08' E 134°59'611.8
2017-Nov-18 09:30N 34°14' E 134°59'2010.8
2017-Nov-18 07:41N 34°30' E 135°13'211.6
2017-Nov-18 07:30N 34°31' E 135°15'611.3
2017-Nov-18 06:59N 34°35' E 135°20'4 8.2
2017-Nov-18 06:30N 34°35' E 135°25'1 1.6
2017-Nov-18 06:01N 34°34' E 135°26'0 0.0
2017-Nov-18 05:28N 34°34' E 135°26'0 0.0
2017-Nov-18 05:00N 34°34' E 135°26'0 0.0
2017-Nov-18 04:02N 34°34' E 135°26'0 0.0
2017-Nov-18 03:59N 34°34' E 135°26'0 0.0
2017-Nov-18 03:29N 34°34' E 135°26'0 0.0
2017-Nov-18 02:55N 34°34' E 135°26'0 0.0
2017-Nov-18 02:27N 34°34' E 135°26'2 4.3
2017-Nov-18 01:58N 34°36' E 135°24'4 9.5
2017-Nov-18 01:31N 34°35' E 135°19'510.6
2017-Nov-18 01:01N 34°31' E 135°14'2 3.4
2017-Nov-18 00:31N 34°32' E 135°16'510.7
2017-Nov-18 00:00N 34°28' E 135°12'1810.3
2017-Nov-17 22:16N 34°13' E 135°00'311.6
2017-Nov-17 22:00N 34°10' E 135°01'5 0.1
2017-Nov-16 06:38N 34°05' E 134°59'211.7
2017-Nov-16 06:26N 34°07' E 134°59'512.1
2017-Nov-16 06:00N 34°12' E 134°59'2211.4
2017-Nov-16 04:06N 34°30' E 135°13'111.2
2017-Nov-16 04:01N 34°31' E 135°14'711.2
2017-Nov-16 03:25N 34°35' E 135°20'4 9.3
2017-Nov-16 02:59N 34°36' E 135°25'1 2.7
2017-Nov-16 02:26N 34°34' E 135°26'0 0.0
2017-Nov-16 01:53N 34°34' E 135°26'0 0.0
2017-Nov-16 01:27N 34°34' E 135°26'0 0.0
2017-Nov-16 01:00N 34°34' E 135°26'0 0.0
2017-Nov-16 00:31N 34°34' E 135°26'0 0.0
2017-Nov-16 00:01N 34°34' E 135°26'0 0.0
2017-Nov-15 23:30N 34°34' E 135°26'0 0.1
2017-Nov-15 23:00N 34°34' E 135°26'3 5.9
2017-Nov-15 22:31N 34°36' E 135°23'0 0.3
2017-Nov-15 21:56N 34°36' E 135°23'0 0.0
2017-Nov-15 21:30N 34°36' E 135°23'0 0.0
2017-Nov-15 20:57N 34°36' E 135°23'0 0.0
2017-Nov-15 20:25N 34°36' E 135°23'0 0.0
2017-Nov-15 20:01N 34°36' E 135°23'0 0.0
2017-Nov-15 19:29N 34°36' E 135°23'0 0.0
2017-Nov-15 19:01N 34°36' E 135°23'0 0.0
2017-Nov-15 18:31N 34°36' E 135°23'0 0.0
2017-Nov-15 18:01N 34°36' E 135°23'0 0.0
2017-Nov-15 17:28N 34°36' E 135°23'0 0.0
2017-Nov-15 16:58N 34°36' E 135°23'0 0.0
2017-Nov-15 16:31N 34°36' E 135°23'1 1.8
2017-Nov-15 16:01N 34°35' E 135°22'510.4
2017-Nov-15 15:31N 34°32' E 135°17'510.4
2017-Nov-15 15:00N 34°28' E 135°13'510.1
2017-Nov-15 14:29N 34°24' E 135°08'14 8.7
2017-Nov-15 12:56N 34°13' E 134°60'410.1
2017-Nov-15 12:31N 34°09' E 135°01'231 8.1
2017-Nov-14 07:57N 35°04' E 139°33'510.5
2017-Nov-14 07:30N 35°06' E 139°38'510.4
2017-Nov-14 07:00N 35°10' E 139°43'610.7
2017-Nov-14 06:28N 35°15' E 139°46'511.3
2017-Nov-14 06:00N 35°19' E 139°43'510.5
2017-Nov-14 05:30N 35°25' E 139°43'611.0
2017-Nov-14 05:00N 35°28' E 139°49'1410.1
2017-Nov-14 03:37N 35°33' E 140°05'  

Dump ship's entire track history